sensor_id;sensor_type;location;lat;lon;timestamp;temperature;humidity
34837;DHT22;21053;50.848;4.652;2022-09-12T00:01:29;14.40;99.90
34837;DHT22;21053;50.848;4.652;2022-09-12T00:03:59;14.40;99.90
34837;DHT22;21053;50.848;4.652;2022-09-12T00:06:33;14.40;99.90
34837;DHT22;21053;50.848;4.652;2022-09-12T00:09:06;14.50;99.90
34837;DHT22;21053;50.848;4.652;2022-09-12T00:11:37;14.60;99.90
34837;DHT22;21053;50.848;4.652;2022-09-12T00:14:08;14.50;99.90
34837;DHT22;21053;50.848;4.652;2022-09-12T00:16:37;14.30;99.90
34837;DHT22;21053;50.848;4.652;2022-09-12T00:19:06;14.20;99.90
34837;DHT22;21053;50.848;4.652;2022-09-12T00:21:36;14.30;99.90
34837;DHT22;21053;50.848;4.652;2022-09-12T00:24:05;14.20;99.90
34837;DHT22;21053;50.848;4.652;2022-09-12T00:26:34;14.30;99.90
34837;DHT22;21053;50.848;4.652;2022-09-12T00:29:01;14.40;99.90
34837;DHT22;21053;50.848;4.652;2022-09-12T00:31:30;14.20;99.90
34837;DHT22;21053;50.848;4.652;2022-09-12T00:33:59;14.00;99.90
34837;DHT22;21053;50.848;4.652;2022-09-12T00:36:28;14.00;99.90
34837;DHT22;21053;50.848;4.652;2022-09-12T00:38:56;14.00;99.90
34837;DHT22;21053;50.848;4.652;2022-09-12T00:44:03;13.70;99.90
34837;DHT22;21053;50.848;4.652;2022-09-12T00:46:43;13.80;99.90
34837;DHT22;21053;50.848;4.652;2022-09-12T00:51:50;13.80;99.90
34837;DHT22;21053;50.848;4.652;2022-09-12T00:54:21;13.70;99.90
34837;DHT22;21053;50.848;4.652;2022-09-12T00:56:53;13.70;99.90
34837;DHT22;21053;50.848;4.652;2022-09-12T00:59:28;14.00;99.90
34837;DHT22;21053;50.848;4.652;2022-09-12T01:01:58;14.00;99.90
34837;DHT22;21053;50.848;4.652;2022-09-12T01:04:27;14.00;99.90
34837;DHT22;21053;50.848;4.652;2022-09-12T01:06:56;13.60;99.90
34837;DHT22;21053;50.848;4.652;2022-09-12T01:09:24;13.70;99.90
34837;DHT22;21053;50.848;4.652;2022-09-12T01:11:54;13.70;99.90
34837;DHT22;21053;50.848;4.652;2022-09-12T01:14:21;13.70;99.90
34837;DHT22;21053;50.848;4.652;2022-09-12T01:16:49;13.90;99.90
34837;DHT22;21053;50.848;4.652;2022-09-12T01:19:38;13.60;99.90
34837;DHT22;21053;50.848;4.652;2022-09-12T01:33:24;13.70;99.90
34837;DHT22;21053;50.848;4.652;2022-09-12T01:42:06;13.20;99.90
34837;DHT22;21053;50.848;4.652;2022-09-12T01:50:31;13.50;99.90
34837;DHT22;21053;50.848;4.652;2022-09-12T01:53:19;13.70;99.90
34837;DHT22;21053;50.848;4.652;2022-09-12T01:55:51;13.80;99.90
34837;DHT22;21053;50.848;4.652;2022-09-12T01:58:28;13.50;99.90
34837;DHT22;21053;50.848;4.652;2022-09-12T02:01:09;13.10;99.90
34837;DHT22;21053;50.848;4.652;2022-09-12T02:04:04;13.40;99.90
34837;DHT22;21053;50.848;4.652;2022-09-12T02:09:41;13.50;99.90
34837;DHT22;21053;50.848;4.652;2022-09-12T02:12:12;13.50;99.90
34837;DHT22;21053;50.848;4.652;2022-09-12T02:14:50;13.50;99.90
34837;DHT22;21053;50.848;4.652;2022-09-12T02:17:21;13.60;99.90
34837;DHT22;21053;50.848;4.652;2022-09-12T02:20:09;13.50;99.90
34837;DHT22;21053;50.848;4.652;2022-09-12T02:22:39;13.50;99.90
34837;DHT22;21053;50.848;4.652;2022-09-12T02:25:08;13.60;99.90
34837;DHT22;21053;50.848;4.652;2022-09-12T02:27:50;13.70;99.90
34837;DHT22;21053;50.848;4.652;2022-09-12T02:30:21;13.50;99.90
34837;DHT22;21053;50.848;4.652;2022-09-12T02:33:06;13.40;99.90
34837;DHT22;21053;50.848;4.652;2022-09-12T02:38:43;13.30;99.90
34837;DHT22;21053;50.848;4.652;2022-09-12T02:41:16;13.30;99.90
34837;DHT22;21053;50.848;4.652;2022-09-12T02:43:43;13.10;99.90
34837;DHT22;21053;50.848;4.652;2022-09-12T02:46:22;13.10;99.90
34837;DHT22;21053;50.848;4.652;2022-09-12T02:48:49;13.20;99.90
34837;DHT22;21053;50.848;4.652;2022-09-12T02:51:16;13.10;99.90
34837;DHT22;21053;50.848;4.652;2022-09-12T02:53:44;13.20;99.90
34837;DHT22;21053;50.848;4.652;2022-09-12T02:56:23;13.20;99.90
34837;DHT22;21053;50.848;4.652;2022-09-12T02:58:54;13.20;99.90
34837;DHT22;21053;50.848;4.652;2022-09-12T03:09:58;13.50;99.90
34837;DHT22;21053;50.848;4.652;2022-09-12T03:21:21;13.30;99.90
34837;DHT22;21053;50.848;4.652;2022-09-12T03:24:13;13.20;99.90
34837;DHT22;21053;50.848;4.652;2022-09-12T03:26:54;13.20;99.90
34837;DHT22;21053;50.848;4.652;2022-09-12T03:29:25;13.10;99.90
34837;DHT22;21053;50.848;4.652;2022-09-12T03:31:56;13.00;99.90
34837;DHT22;21053;50.848;4.652;2022-09-12T03:34:28;13.00;99.90
34837;DHT22;21053;50.848;4.652;2022-09-12T03:36:56;13.00;99.90
34837;DHT22;21053;50.848;4.652;2022-09-12T03:39:25;12.90;99.90
34837;DHT22;21053;50.848;4.652;2022-09-12T03:41:53;12.70;99.90
34837;DHT22;21053;50.848;4.652;2022-09-12T03:44:22;12.70;99.90
34837;DHT22;21053;50.848;4.652;2022-09-12T03:46:50;12.60;99.90
34837;DHT22;21053;50.848;4.652;2022-09-12T03:49:19;12.60;99.90
34837;DHT22;21053;50.848;4.652;2022-09-12T03:51:47;12.80;99.90
34837;DHT22;21053;50.848;4.652;2022-09-12T03:54:19;12.90;99.90
34837;DHT22;21053;50.848;4.652;2022-09-12T03:56:46;13.00;99.90
34837;DHT22;21053;50.848;4.652;2022-09-12T03:59:15;13.00;99.90
34837;DHT22;21053;50.848;4.652;2022-09-12T04:01:43;13.00;99.90
34837;DHT22;21053;50.848;4.652;2022-09-12T04:04:12;13.00;99.90
34837;DHT22;21053;50.848;4.652;2022-09-12T04:06:41;13.00;99.90
34837;DHT22;21053;50.848;4.652;2022-09-12T04:09:08;13.00;99.90
34837;DHT22;21053;50.848;4.652;2022-09-12T04:11:37;13.00;99.90
34837;DHT22;21053;50.848;4.652;2022-09-12T04:14:03;13.00;99.90
34837;DHT22;21053;50.848;4.652;2022-09-12T04:16:32;12.90;99.90
34837;DHT22;21053;50.848;4.652;2022-09-12T04:18:59;12.80;99.90
34837;DHT22;21053;50.848;4.652;2022-09-12T04:21:28;12.70;99.90
34837;DHT22;21053;50.848;4.652;2022-09-12T04:26:23;12.90;99.90
34837;DHT22;21053;50.848;4.652;2022-09-12T04:28:52;12.90;99.90
34837;DHT22;21053;50.848;4.652;2022-09-12T04:31:21;12.90;99.90
34837;DHT22;21053;50.848;4.652;2022-09-12T04:33:56;12.90;99.90
34837;DHT22;21053;50.848;4.652;2022-09-12T04:36:24;12.80;99.90
34837;DHT22;21053;50.848;4.652;2022-09-12T04:38:53;12.70;99.90
34837;DHT22;21053;50.848;4.652;2022-09-12T04:41:26;12.60;99.90
34837;DHT22;21053;50.848;4.652;2022-09-12T04:43:56;12.70;99.90
34837;DHT22;21053;50.848;4.652;2022-09-12T04:46:33;12.80;99.90
34837;DHT22;21053;50.848;4.652;2022-09-12T04:49:02;12.80;99.90
34837;DHT22;21053;50.848;4.652;2022-09-12T04:51:32;12.70;99.90
34837;DHT22;21053;50.848;4.652;2022-09-12T04:54:03;12.70;99.90
34837;DHT22;21053;50.848;4.652;2022-09-12T04:56:36;12.70;99.90
34837;DHT22;21053;50.848;4.652;2022-09-12T04:59:04;12.70;99.90
34837;DHT22;21053;50.848;4.652;2022-09-12T05:01:31;12.70;99.90
34837;DHT22;21053;50.848;4.652;2022-09-12T05:03:58;12.70;99.90
34837;DHT22;21053;50.848;4.652;2022-09-12T05:06:29;12.70;99.90
34837;DHT22;21053;50.848;4.652;2022-09-12T05:08:59;12.60;99.90
34837;DHT22;21053;50.848;4.652;2022-09-12T05:11:30;12.50;99.90
34837;DHT22;21053;50.848;4.652;2022-09-12T05:13:56;12.60;99.90
34837;DHT22;21053;50.848;4.652;2022-09-12T05:16:27;12.60;99.90
34837;DHT22;21053;50.848;4.652;2022-09-12T05:18:54;12.40;99.90
34837;DHT22;21053;50.848;4.652;2022-09-12T05:21:22;12.40;99.90
34837;DHT22;21053;50.848;4.652;2022-09-12T05:23:52;12.40;99.90
34837;DHT22;21053;50.848;4.652;2022-09-12T05:26:20;12.50;99.90
34837;DHT22;21053;50.848;4.652;2022-09-12T05:28:51;12.50;99.90
34837;DHT22;21053;50.848;4.652;2022-09-12T05:31:21;12.50;99.90
34837;DHT22;21053;50.848;4.652;2022-09-12T05:33:52;12.60;99.90
34837;DHT22;21053;50.848;4.652;2022-09-12T05:36:28;12.50;99.90
34837;DHT22;21053;50.848;4.652;2022-09-12T05:38:58;12.50;99.90
34837;DHT22;21053;50.848;4.652;2022-09-12T05:41:30;12.50;99.90
34837;DHT22;21053;50.848;4.652;2022-09-12T05:43:57;12.50;99.90
34837;DHT22;21053;50.848;4.652;2022-09-12T05:46:39;12.60;99.90
34837;DHT22;21053;50.848;4.652;2022-09-12T05:49:09;12.40;99.90
34837;DHT22;21053;50.848;4.652;2022-09-12T05:51:40;12.40;99.90
34837;DHT22;21053;50.848;4.652;2022-09-12T05:54:08;12.40;99.90
34837;DHT22;21053;50.848;4.652;2022-09-12T05:56:37;12.40;99.90
34837;DHT22;21053;50.848;4.652;2022-09-12T05:59:12;12.40;99.90
34837;DHT22;21053;50.848;4.652;2022-09-12T06:01:40;12.40;99.90
34837;DHT22;21053;50.848;4.652;2022-09-12T06:04:08;12.20;99.90
34837;DHT22;21053;50.848;4.652;2022-09-12T06:06:37;12.40;99.90
34837;DHT22;21053;50.848;4.652;2022-09-12T06:09:05;12.40;99.90
34837;DHT22;21053;50.848;4.652;2022-09-12T06:11:33;12.50;99.90
34837;DHT22;21053;50.848;4.652;2022-09-12T06:13:59;12.50;99.90
34837;DHT22;21053;50.848;4.652;2022-09-12T06:16:27;12.50;99.90
34837;DHT22;21053;50.848;4.652;2022-09-12T06:19:06;12.50;99.90
34837;DHT22;21053;50.848;4.652;2022-09-12T06:21:33;12.50;99.90
34837;DHT22;21053;50.848;4.652;2022-09-12T06:24:07;12.60;99.90
34837;DHT22;21053;50.848;4.652;2022-09-12T06:28:01;12.50;99.90
34837;DHT22;21053;50.848;4.652;2022-09-12T06:30:27;12.60;99.90
34837;DHT22;21053;50.848;4.652;2022-09-12T06:32:56;12.60;99.90
34837;DHT22;21053;50.848;4.652;2022-09-12T06:35:38;12.80;99.90
34837;DHT22;21053;50.848;4.652;2022-09-12T06:38:05;13.00;99.90
34837;DHT22;21053;50.848;4.652;2022-09-12T06:40:34;13.10;99.90
34837;DHT22;21053;50.848;4.652;2022-09-12T06:43:01;13.10;99.90
34837;DHT22;21053;50.848;4.652;2022-09-12T06:47:57;13.40;99.90
34837;DHT22;21053;50.848;4.652;2022-09-12T06:50:24;13.60;99.90
34837;DHT22;21053;50.848;4.652;2022-09-12T06:52:52;13.70;99.90
34837;DHT22;21053;50.848;4.652;2022-09-12T06:55:18;13.80;99.90
34837;DHT22;21053;50.848;4.652;2022-09-12T06:57:46;13.90;99.90
34837;DHT22;21053;50.848;4.652;2022-09-12T07:00:12;14.00;99.90
34837;DHT22;21053;50.848;4.652;2022-09-12T07:02:41;14.00;99.90
34837;DHT22;21053;50.848;4.652;2022-09-12T07:05:12;14.20;99.90
34837;DHT22;21053;50.848;4.652;2022-09-12T07:07:40;14.40;99.90
34837;DHT22;21053;50.848;4.652;2022-09-12T07:10:07;14.50;99.90
34837;DHT22;21053;50.848;4.652;2022-09-12T07:12:39;14.50;99.90
34837;DHT22;21053;50.848;4.652;2022-09-12T07:15:08;14.70;99.90
34837;DHT22;21053;50.848;4.652;2022-09-12T07:17:37;14.80;99.90
34837;DHT22;21053;50.848;4.652;2022-09-12T07:20:07;15.10;99.90
34837;DHT22;21053;50.848;4.652;2022-09-12T07:22:34;15.20;99.90
34837;DHT22;21053;50.848;4.652;2022-09-12T07:25:03;15.40;99.90
34837;DHT22;21053;50.848;4.652;2022-09-12T07:27:31;15.50;99.90
34837;DHT22;21053;50.848;4.652;2022-09-12T07:30:00;15.70;99.90
34837;DHT22;21053;50.848;4.652;2022-09-12T07:32:26;15.90;99.90
34837;DHT22;21053;50.848;4.652;2022-09-12T07:34:52;16.20;99.90
34837;DHT22;21053;50.848;4.652;2022-09-12T07:37:21;16.30;99.90
34837;DHT22;21053;50.848;4.652;2022-09-12T07:39:49;16.40;99.90
34837;DHT22;21053;50.848;4.652;2022-09-12T07:42:20;16.70;99.90
34837;DHT22;21053;50.848;4.652;2022-09-12T07:44:49;16.60;99.90
34837;DHT22;21053;50.848;4.652;2022-09-12T07:47:18;16.80;99.90
34837;DHT22;21053;50.848;4.652;2022-09-12T07:49:44;17.00;99.90
34837;DHT22;21053;50.848;4.652;2022-09-12T07:52:13;17.20;99.90
34837;DHT22;21053;50.848;4.652;2022-09-12T07:54:41;17.30;99.90
34837;DHT22;21053;50.848;4.652;2022-09-12T07:57:06;17.50;99.90
34837;DHT22;21053;50.848;4.652;2022-09-12T07:59:33;17.60;99.90
34837;DHT22;21053;50.848;4.652;2022-09-12T08:02:00;17.80;99.90
34837;DHT22;21053;50.848;4.652;2022-09-12T08:04:27;18.10;99.90
34837;DHT22;21053;50.848;4.652;2022-09-12T08:06:56;18.30;99.90
34837;DHT22;21053;50.848;4.652;2022-09-12T08:09:25;18.50;99.90
34837;DHT22;21053;50.848;4.652;2022-09-12T08:11:53;18.70;99.90
34837;DHT22;21053;50.848;4.652;2022-09-12T08:14:19;19.00;99.90
34837;DHT22;21053;50.848;4.652;2022-09-12T08:16:49;19.30;99.90
34837;DHT22;21053;50.848;4.652;2022-09-12T08:19:18;19.60;99.90
34837;DHT22;21053;50.848;4.652;2022-09-12T08:21:45;19.80;99.90
34837;DHT22;21053;50.848;4.652;2022-09-12T08:24:13;20.20;99.90
34837;DHT22;21053;50.848;4.652;2022-09-12T08:26:43;20.40;99.90
34837;DHT22;21053;50.848;4.652;2022-09-12T08:29:11;20.60;99.90
34837;DHT22;21053;50.848;4.652;2022-09-12T08:31:40;21.00;99.90
34837;DHT22;21053;50.848;4.652;2022-09-12T08:34:07;21.30;99.90
34837;DHT22;21053;50.848;4.652;2022-09-12T08:36:34;21.80;99.90
34837;DHT22;21053;50.848;4.652;2022-09-12T08:39:04;22.10;99.90
34837;DHT22;21053;50.848;4.652;2022-09-12T08:41:42;22.50;99.90
34837;DHT22;21053;50.848;4.652;2022-09-12T08:46:59;23.50;99.20
34837;DHT22;21053;50.848;4.652;2022-09-12T08:49:33;23.60;98.10
34837;DHT22;21053;50.848;4.652;2022-09-12T08:52:13;23.70;98.20
34837;DHT22;21053;50.848;4.652;2022-09-12T08:54:42;23.60;97.50
34837;DHT22;21053;50.848;4.652;2022-09-12T08:57:13;23.70;97.60
34837;DHT22;21053;50.848;4.652;2022-09-12T08:59:43;23.70;97.50
34837;DHT22;21053;50.848;4.652;2022-09-12T09:02:31;23.70;97.00
34837;DHT22;21053;50.848;4.652;2022-09-12T09:05:31;24.00;97.70
34837;DHT22;21053;50.848;4.652;2022-09-12T09:08:31;24.60;96.60
34837;DHT22;21053;50.848;4.652;2022-09-12T09:11:32;25.00;95.80
34837;DHT22;21053;50.848;4.652;2022-09-12T09:14:34;25.50;93.80
34837;DHT22;21053;50.848;4.652;2022-09-12T09:17:19;26.00;92.90
34837;DHT22;21053;50.848;4.652;2022-09-12T09:20:15;26.20;92.00
34837;DHT22;21053;50.848;4.652;2022-09-12T09:23:07;26.40;91.50
34837;DHT22;21053;50.848;4.652;2022-09-12T09:25:59;26.60;90.60
34837;DHT22;21053;50.848;4.652;2022-09-12T09:29:01;26.50;90.30
34837;DHT22;21053;50.848;4.652;2022-09-12T09:31:22;26.90;89.80
34837;DHT22;21053;50.848;4.652;2022-09-12T09:33:50;26.90;88.00
34837;DHT22;21053;50.848;4.652;2022-09-12T09:39:23;27.20;86.80
34837;DHT22;21053;50.848;4.652;2022-09-12T09:42:17;27.30;85.40
34837;DHT22;21053;50.848;4.652;2022-09-12T09:44:45;27.40;84.60
34837;DHT22;21053;50.848;4.652;2022-09-12T09:47:17;27.50;83.10
34837;DHT22;21053;50.848;4.652;2022-09-12T09:49:56;27.60;83.00
34837;DHT22;21053;50.848;4.652;2022-09-12T09:52:28;27.80;80.30
34837;DHT22;21053;50.848;4.652;2022-09-12T09:54:59;28.10;80.70
34837;DHT22;21053;50.848;4.652;2022-09-12T09:57:39;28.10;75.30
34837;DHT22;21053;50.848;4.652;2022-09-12T10:00:26;28.20;78.00
34837;DHT22;21053;50.848;4.652;2022-09-12T10:05:54;28.70;75.90
34837;DHT22;21053;50.848;4.652;2022-09-12T10:08:35;28.90;73.40
34837;DHT22;21053;50.848;4.652;2022-09-12T10:11:18;29.20;73.80
34837;DHT22;21053;50.848;4.652;2022-09-12T10:16:30;29.20;74.70
34837;DHT22;21053;50.848;4.652;2022-09-12T10:18:58;29.30;72.60
34837;DHT22;21053;50.848;4.652;2022-09-12T10:21:32;29.30;74.50
34837;DHT22;21053;50.848;4.652;2022-09-12T10:26:26;29.00;74.50
34837;DHT22;21053;50.848;4.652;2022-09-12T10:29:02;29.00;72.70
34837;DHT22;21053;50.848;4.652;2022-09-12T10:31:41;29.00;73.10
34837;DHT22;21053;50.848;4.652;2022-09-12T10:34:22;29.00;73.60
34837;DHT22;21053;50.848;4.652;2022-09-12T10:36:57;29.10;77.30
34837;DHT22;21053;50.848;4.652;2022-09-12T10:39:27;29.30;75.60
34837;DHT22;21053;50.848;4.652;2022-09-12T10:41:54;29.30;74.80
34837;DHT22;21053;50.848;4.652;2022-09-12T10:44:29;29.40;68.50
34837;DHT22;21053;50.848;4.652;2022-09-12T10:47:21;29.40;71.20
34837;DHT22;21053;50.848;4.652;2022-09-12T10:49:48;29.40;74.00
34837;DHT22;21053;50.848;4.652;2022-09-12T10:52:23;29.40;72.50
34837;DHT22;21053;50.848;4.652;2022-09-12T10:55:31;29.60;71.70
34837;DHT22;21053;50.848;4.652;2022-09-12T10:58:13;29.90;70.60
34837;DHT22;21053;50.848;4.652;2022-09-12T11:00:46;29.80;67.10
34837;DHT22;21053;50.848;4.652;2022-09-12T11:03:23;29.50;73.70
34837;DHT22;21053;50.848;4.652;2022-09-12T11:05:59;29.70;70.80
34837;DHT22;21053;50.848;4.652;2022-09-12T11:14:08;30.70;66.10
34837;DHT22;21053;50.848;4.652;2022-09-12T11:24:58;31.40;66.10
34837;DHT22;21053;50.848;4.652;2022-09-12T11:30:15;31.20;58.60
34837;DHT22;21053;50.848;4.652;2022-09-12T11:32:50;31.40;60.90
34837;DHT22;21053;50.848;4.652;2022-09-12T11:35:28;31.70;59.70
34837;DHT22;21053;50.848;4.652;2022-09-12T11:38:17;31.90;60.70
34837;DHT22;21053;50.848;4.652;2022-09-12T11:41:00;32.30;60.70
34837;DHT22;21053;50.848;4.652;2022-09-12T11:52:02;33.30;58.20
34837;DHT22;21053;50.848;4.652;2022-09-12T11:54:40;33.30;56.90
34837;DHT22;21053;50.848;4.652;2022-09-12T12:00:19;33.70;57.20
34837;DHT22;21053;50.848;4.652;2022-09-12T12:05:56;33.90;55.20
34837;DHT22;21053;50.848;4.652;2022-09-12T12:08:31;33.80;53.50
34837;DHT22;21053;50.848;4.652;2022-09-12T12:11:03;33.80;54.50
34837;DHT22;21053;50.848;4.652;2022-09-12T12:16:30;34.30;54.40
34837;DHT22;21053;50.848;4.652;2022-09-12T12:19:18;34.80;55.40
34837;DHT22;21053;50.848;4.652;2022-09-12T12:21:48;35.20;52.50
34837;DHT22;21053;50.848;4.652;2022-09-12T12:24:25;35.20;52.60
34837;DHT22;21053;50.848;4.652;2022-09-12T12:27:01;35.30;53.50
34837;DHT22;21053;50.848;4.652;2022-09-12T12:29:44;34.90;54.10
34837;DHT22;21053;50.848;4.652;2022-09-12T12:34:48;33.30;55.80
34837;DHT22;21053;50.848;4.652;2022-09-12T12:40:09;32.40;57.50
34837;DHT22;21053;50.848;4.652;2022-09-12T12:47:49;31.30;57.80
34837;DHT22;21053;50.848;4.652;2022-09-12T12:58:00;30.70;56.60
34837;DHT22;21053;50.848;4.652;2022-09-12T13:00:33;30.60;58.40
34837;DHT22;21053;50.848;4.652;2022-09-12T13:03:44;30.50;57.40
34837;DHT22;21053;50.848;4.652;2022-09-12T13:06:06;30.40;57.90
34837;DHT22;21053;50.848;4.652;2022-09-12T13:08:38;30.20;59.30
34837;DHT22;21053;50.848;4.652;2022-09-12T13:11:14;30.30;59.20
34837;DHT22;21053;50.848;4.652;2022-09-12T13:13:51;30.20;58.70
34837;DHT22;21053;50.848;4.652;2022-09-12T13:16:37;30.00;60.40
34837;DHT22;21053;50.848;4.652;2022-09-12T13:19:11;30.10;60.60
34837;DHT22;21053;50.848;4.652;2022-09-12T13:21:59;30.10;60.10
34837;DHT22;21053;50.848;4.652;2022-09-12T13:24:28;29.90;57.80
34837;DHT22;21053;50.848;4.652;2022-09-12T13:26:56;29.60;58.50
34837;DHT22;21053;50.848;4.652;2022-09-12T13:29:25;29.40;60.60
34837;DHT22;21053;50.848;4.652;2022-09-12T13:32:00;29.30;59.60
34837;DHT22;21053;50.848;4.652;2022-09-12T13:34:34;29.10;60.80
34837;DHT22;21053;50.848;4.652;2022-09-12T13:40:11;29.30;62.90
34837;DHT22;21053;50.848;4.652;2022-09-12T13:42:47;29.30;58.10
34837;DHT22;21053;50.848;4.652;2022-09-12T13:45:26;29.50;59.50
34837;DHT22;21053;50.848;4.652;2022-09-12T13:50:29;29.70;59.20
34837;DHT22;21053;50.848;4.652;2022-09-12T13:53:16;29.80;60.50
34837;DHT22;21053;50.848;4.652;2022-09-12T13:55:56;29.80;59.90
34837;DHT22;21053;50.848;4.652;2022-09-12T13:58:32;29.70;59.50
34837;DHT22;21053;50.848;4.652;2022-09-12T14:03:47;29.70;58.40
34837;DHT22;21053;50.848;4.652;2022-09-12T14:06:45;29.90;59.90
34837;DHT22;21053;50.848;4.652;2022-09-12T14:09:31;30.00;60.20
34837;DHT22;21053;50.848;4.652;2022-09-12T14:11:59;29.90;61.30
34837;DHT22;21053;50.848;4.652;2022-09-12T14:14:28;29.80;58.50
34837;DHT22;21053;50.848;4.652;2022-09-12T14:16:58;29.90;60.90
34837;DHT22;21053;50.848;4.652;2022-09-12T14:19:27;29.80;61.20
34837;DHT22;21053;50.848;4.652;2022-09-12T14:21:57;29.70;59.00
34837;DHT22;21053;50.848;4.652;2022-09-12T14:24:23;29.70;60.70
34837;DHT22;21053;50.848;4.652;2022-09-12T14:26:53;29.70;61.90
34837;DHT22;21053;50.848;4.652;2022-09-12T14:29:24;29.80;61.40
34837;DHT22;21053;50.848;4.652;2022-09-12T14:32:03;29.70;61.90
34837;DHT22;21053;50.848;4.652;2022-09-12T14:34:31;29.70;58.40
34837;DHT22;21053;50.848;4.652;2022-09-12T14:36:58;29.60;60.40
34837;DHT22;21053;50.848;4.652;2022-09-12T14:39:43;29.60;59.00
34837;DHT22;21053;50.848;4.652;2022-09-12T14:42:25;29.70;59.70
34837;DHT22;21053;50.848;4.652;2022-09-12T14:44:56;29.70;59.80
34837;DHT22;21053;50.848;4.652;2022-09-12T14:47:26;29.70;61.90
34837;DHT22;21053;50.848;4.652;2022-09-12T14:49:54;29.60;64.10
34837;DHT22;21053;50.848;4.652;2022-09-12T14:52:32;29.40;62.50
34837;DHT22;21053;50.848;4.652;2022-09-12T14:55:22;29.30;61.90
34837;DHT22;21053;50.848;4.652;2022-09-12T15:03:36;29.00;63.00
34837;DHT22;21053;50.848;4.652;2022-09-12T15:06:17;29.00;60.30
34837;DHT22;21053;50.848;4.652;2022-09-12T15:08:45;29.00;62.10
34837;DHT22;21053;50.848;4.652;2022-09-12T15:11:13;29.00;61.50
34837;DHT22;21053;50.848;4.652;2022-09-12T15:13:40;29.10;61.80
34837;DHT22;21053;50.848;4.652;2022-09-12T15:16:08;29.00;60.10
34837;DHT22;21053;50.848;4.652;2022-09-12T15:18:37;28.90;61.20
34837;DHT22;21053;50.848;4.652;2022-09-12T15:21:05;28.70;59.70
34837;DHT22;21053;50.848;4.652;2022-09-12T15:23:36;28.70;60.60
34837;DHT22;21053;50.848;4.652;2022-09-12T15:26:08;28.60;59.50
34837;DHT22;21053;50.848;4.652;2022-09-12T15:28:36;28.70;63.10
34837;DHT22;21053;50.848;4.652;2022-09-12T15:31:26;28.50;61.00
34837;DHT22;21053;50.848;4.652;2022-09-12T15:33:51;28.50;60.80
34837;DHT22;21053;50.848;4.652;2022-09-12T15:36:21;28.50;60.20
34837;DHT22;21053;50.848;4.652;2022-09-12T15:38:49;28.40;63.30
34837;DHT22;21053;50.848;4.652;2022-09-12T15:41:31;28.40;60.90
34837;DHT22;21053;50.848;4.652;2022-09-12T15:43:59;28.30;63.60
34837;DHT22;21053;50.848;4.652;2022-09-12T15:46:25;28.30;60.20
34837;DHT22;21053;50.848;4.652;2022-09-12T15:48:53;28.20;59.00
34837;DHT22;21053;50.848;4.652;2022-09-12T15:51:20;28.00;60.30
34837;DHT22;21053;50.848;4.652;2022-09-12T15:53:48;27.90;61.30
34837;DHT22;21053;50.848;4.652;2022-09-12T15:56:17;27.80;63.20
34837;DHT22;21053;50.848;4.652;2022-09-12T15:58:46;27.70;64.70
34837;DHT22;21053;50.848;4.652;2022-09-12T16:01:14;27.70;65.00
34837;DHT22;21053;50.848;4.652;2022-09-12T16:03:41;27.70;64.10
34837;DHT22;21053;50.848;4.652;2022-09-12T16:06:13;27.60;67.00
34837;DHT22;21053;50.848;4.652;2022-09-12T16:08:40;27.70;64.80
34837;DHT22;21053;50.848;4.652;2022-09-12T16:11:19;27.70;70.10
34837;DHT22;21053;50.848;4.652;2022-09-12T16:13:45;27.60;65.20
34837;DHT22;21053;50.848;4.652;2022-09-12T16:16:11;27.70;70.90
34837;DHT22;21053;50.848;4.652;2022-09-12T16:18:40;27.60;70.10
34837;DHT22;21053;50.848;4.652;2022-09-12T16:21:06;27.40;70.30
34837;DHT22;21053;50.848;4.652;2022-09-12T16:23:34;27.40;75.00
34837;DHT22;21053;50.848;4.652;2022-09-12T16:26:06;27.30;76.70
34837;DHT22;21053;50.848;4.652;2022-09-12T16:28:32;27.00;77.00
34837;DHT22;21053;50.848;4.652;2022-09-12T16:31:00;26.80;73.70
34837;DHT22;21053;50.848;4.652;2022-09-12T16:33:43;26.70;75.90
34837;DHT22;21053;50.848;4.652;2022-09-12T16:36:13;26.50;79.20
34837;DHT22;21053;50.848;4.652;2022-09-12T16:38:45;26.30;81.80
34837;DHT22;21053;50.848;4.652;2022-09-12T16:41:15;26.20;84.00
34837;DHT22;21053;50.848;4.652;2022-09-12T16:43:43;26.10;83.50
34837;DHT22;21053;50.848;4.652;2022-09-12T16:46:13;26.10;85.20
34837;DHT22;21053;50.848;4.652;2022-09-12T16:48:46;26.10;86.50
34837;DHT22;21053;50.848;4.652;2022-09-12T16:51:17;26.00;87.40
34837;DHT22;21053;50.848;4.652;2022-09-12T16:53:45;25.80;88.90
34837;DHT22;21053;50.848;4.652;2022-09-12T16:56:11;25.80;89.00
34837;DHT22;21053;50.848;4.652;2022-09-12T16:58:39;25.70;89.60
34837;DHT22;21053;50.848;4.652;2022-09-12T17:01:15;25.70;89.80
34837;DHT22;21053;50.848;4.652;2022-09-12T17:03:42;25.60;90.40
34837;DHT22;21053;50.848;4.652;2022-09-12T17:06:10;25.60;90.90
34837;DHT22;21053;50.848;4.652;2022-09-12T17:08:39;25.30;91.40
34837;DHT22;21053;50.848;4.652;2022-09-12T17:11:10;25.30;91.50
34837;DHT22;21053;50.848;4.652;2022-09-12T17:13:49;25.30;91.20
34837;DHT22;21053;50.848;4.652;2022-09-12T17:16:16;25.30;92.10
34837;DHT22;21053;50.848;4.652;2022-09-12T17:18:42;25.10;92.10
34837;DHT22;21053;50.848;4.652;2022-09-12T17:21:11;25.00;90.10
34837;DHT22;21053;50.848;4.652;2022-09-12T17:23:39;24.90;86.60
34837;DHT22;21053;50.848;4.652;2022-09-12T17:26:08;24.70;90.00
34837;DHT22;21053;50.848;4.652;2022-09-12T17:28:38;24.70;91.30
34837;DHT22;21053;50.848;4.652;2022-09-12T17:31:08;24.80;92.10
34837;DHT22;21053;50.848;4.652;2022-09-12T17:33:37;24.80;92.50
34837;DHT22;21053;50.848;4.652;2022-09-12T17:36:08;24.70;92.20
34837;DHT22;21053;50.848;4.652;2022-09-12T17:38:37;24.70;92.60
34837;DHT22;21053;50.848;4.652;2022-09-12T17:41:12;24.60;92.90
34837;DHT22;21053;50.848;4.652;2022-09-12T17:43:46;24.60;93.20
34837;DHT22;21053;50.848;4.652;2022-09-12T17:46:17;24.40;93.40
34837;DHT22;21053;50.848;4.652;2022-09-12T17:48:50;24.30;93.60
34837;DHT22;21053;50.848;4.652;2022-09-12T17:51:18;24.00;94.10
34837;DHT22;21053;50.848;4.652;2022-09-12T17:53:44;24.00;94.00
34837;DHT22;21053;50.848;4.652;2022-09-12T17:56:11;23.90;94.20
34837;DHT22;21053;50.848;4.652;2022-09-12T17:58:38;23.80;94.50
34837;DHT22;21053;50.848;4.652;2022-09-12T18:01:12;23.70;94.60
34837;DHT22;21053;50.848;4.652;2022-09-12T18:04:00;23.50;94.10
34837;DHT22;21053;50.848;4.652;2022-09-12T18:06:29;23.50;94.60
34837;DHT22;21053;50.848;4.652;2022-09-12T18:09:04;23.30;94.80
34837;DHT22;21053;50.848;4.652;2022-09-12T18:11:34;23.20;94.90
34837;DHT22;21053;50.848;4.652;2022-09-12T18:14:02;23.10;95.30
34837;DHT22;21053;50.848;4.652;2022-09-12T18:16:31;23.00;95.80
34837;DHT22;21053;50.848;4.652;2022-09-12T18:19:02;23.00;95.90
34837;DHT22;21053;50.848;4.652;2022-09-12T18:21:31;22.90;95.90